Time;durP1;ratioP1;P1;durP2;ratioP2;P2;SDS_P1;SDS_P2;PMS_P1;PMS_P2;Temp;Humidity;BMP_temperature;BMP_pressure;BME280_temperature;BME280_humidity;BME280_pressure;Samples;Min_cycle;Max_cycle;Signal;HPM_P1;HPM_P2
2022/12/08 00:01:40;;;;;;;25.13;8.70;;;-1.20;99.90;;;;;;4974980;28;20035;-90
2022/12/08 00:04:06;;;;;;;22.65;8.05;;;-1.30;99.90;;;;;;4976256;28;20042;-90
2022/12/08 00:09:33;;;;;;;19.83;6.60;;;-1.40;99.90;;;;;;4976054;28;20082;-89
2022/12/08 00:12:05;;;;;;;17.42;6.35;;;-1.40;99.90;;;;;;4976102;28;20038;-89
2022/12/08 00:14:32;;;;;;;13.45;5.20;;;-1.40;99.90;;;;;;4976384;28;20062;-89
2022/12/08 00:16:59;;;;;;;14.05;5.68;;;-1.40;99.90;;;;;;4975601;28;20547;-89
2022/12/08 00:19:25;;;;;;;11.43;4.72;;;-1.40;99.90;;;;;;4973594;28;20058;-90
2022/12/08 00:21:51;;;;;;;12.63;4.53;;;-1.40;99.90;;;;;;4975586;28;20105;-89
2022/12/08 00:24:18;;;;;;;12.63;3.50;;;-1.40;99.90;;;;;;4974158;28;20054;-89
2022/12/08 00:26:44;;;;;;;9.02;3.83;;;-1.40;99.90;;;;;;4980365;28;20038;-89
2022/12/08 00:29:10;;;;;;;5.50;2.10;;;-1.40;99.90;;;;;;4990334;28;20040;-89
2022/12/08 00:31:36;;;;;;;13.60;4.35;;;-1.30;99.90;;;;;;4995058;28;20027;-90
2022/12/08 00:34:02;;;;;;;9.88;4.10;;;-1.40;99.90;;;;;;4994980;28;20050;-89
2022/12/08 00:36:28;;;;;;;11.38;3.75;;;-1.40;99.90;;;;;;4994455;28;20031;-90
2022/12/08 00:38:54;;;;;;;15.00;5.65;;;-1.40;99.90;;;;;;4993082;28;20026;-89
2022/12/08 00:42:10;;;;;;;13.98;4.70;;;-1.40;99.90;;;;;;4993629;28;20484;-88
2022/12/08 00:44:10;;;;;;;11.95;4.50;;;-1.50;99.90;;;;;;4994680;28;20034;-88
2022/12/08 00:46:36;;;;;;;12.23;4.22;;;-1.50;99.90;;;;;;4994898;28;20045;-89
2022/12/08 00:49:03;;;;;;;11.95;4.38;;;-1.50;99.90;;;;;;4993136;28;20093;-90
2022/12/08 00:51:29;;;;;;;9.10;3.40;;;-1.50;99.90;;;;;;4993662;28;20494;-89
2022/12/08 00:53:54;;;;;;;9.40;2.33;;;-1.50;99.90;;;;;;4994257;28;20023;-89
2022/12/08 00:56:20;;;;;;;9.18;3.40;;;-1.50;99.90;;;;;;4994692;28;20038;-89
2022/12/08 00:58:46;;;;;;;5.05;1.80;;;-1.50;99.90;;;;;;4994051;28;20026;-90
2022/12/08 01:01:13;;;;;;;6.07;1.73;;;-1.50;99.90;;;;;;4993384;28;20161;-89
2022/12/08 01:03:39;;;;;;;8.35;2.58;;;-1.40;99.90;;;;;;4994191;28;20030;-87
2022/12/08 01:06:06;;;;;;;12.43;4.60;;;-1.50;99.90;;;;;;4994444;28;20038;-89
2022/12/08 01:08:32;;;;;;;9.20;3.65;;;-1.50;99.90;;;;;;4993219;28;20078;-88
2022/12/08 01:11:05;;;;;;;6.00;3.05;;;-1.50;99.90;;;;;;4994111;28;20030;-88
2022/12/08 01:13:31;;;;;;;6.80;1.77;;;-1.60;99.90;;;;;;4993024;28;20034;-89
2022/12/08 01:15:57;;;;;;;20.23;6.93;;;-1.60;99.90;;;;;;4994141;28;20037;-90
2022/12/08 01:18:22;;;;;;;24.10;8.02;;;-1.60;99.90;;;;;;4992767;28;20022;-89
2022/12/08 01:20:48;;;;;;;19.20;8.02;;;-1.60;99.90;;;;;;4992388;28;20026;-89
2022/12/08 01:23:13;;;;;;;20.67;6.88;;;-1.70;99.90;;;;;;4992653;28;20790;-88
2022/12/08 01:25:39;;;;;;;28.20;8.10;;;-1.80;99.90;;;;;;4986020;28;20038;-89
2022/12/08 01:28:05;;;;;;;24.35;7.65;;;-1.80;99.90;;;;;;4987638;28;20026;-88
2022/12/08 01:30:30;;;;;;;16.58;6.28;;;-1.80;99.90;;;;;;4991576;28;20077;-89
2022/12/08 01:32:56;;;;;;;17.60;6.15;;;-1.90;99.90;;;;;;4992599;28;20032;-90
2022/12/08 01:35:22;;;;;;;12.38;4.25;;;-1.80;99.90;;;;;;4992679;28;20563;-89
2022/12/08 01:37:49;;;;;;;14.43;4.13;;;-1.80;99.90;;;;;;4993434;28;20041;-90
2022/12/08 01:40:15;;;;;;;10.02;4.10;;;-1.90;99.90;;;;;;4994095;28;20042;-90
2022/12/08 01:42:41;;;;;;;10.23;3.72;;;-1.90;99.90;;;;;;4994327;28;20080;-89
2022/12/08 01:45:17;;;;;;;6.65;2.00;;;-1.90;99.90;;;;;;4994078;28;20034;-90
2022/12/08 01:47:47;;;;;;;11.63;3.30;;;-1.70;99.90;;;;;;4993718;28;20030;-90
2022/12/08 01:50:14;;;;;;;6.45;2.88;;;-1.80;99.90;;;;;;5002038;28;20068;-89
2022/12/08 01:52:45;;;;;;;6.60;3.15;;;-1.80;99.90;;;;;;5000487;28;20037;-89
2022/12/08 01:55:32;;;;;;;10.10;3.13;;;-1.80;99.90;;;;;;4999276;28;20041;-89
2022/12/08 01:58:11;;;;;;;7.40;2.78;;;-1.80;99.90;;;;;;5013826;28;20030;-90
2022/12/08 02:00:37;;;;;;;7.00;2.03;;;-1.80;99.90;;;;;;4996151;28;20045;-89
2022/12/08 02:03:07;;;;;;;6.75;2.45;;;-1.70;99.90;;;;;;4994740;28;20102;-89
2022/12/08 02:05:37;;;;;;;4.32;1.70;;;-1.80;99.90;;;;;;4993352;28;20053;-89
2022/12/08 02:08:06;;;;;;;3.90;1.50;;;-1.80;99.90;;;;;;4992551;28;20077;-90
2022/12/08 02:10:35;;;;;;;5.15;2.45;;;-1.70;99.90;;;;;;4993985;28;20069;-89
2022/12/08 02:13:03;;;;;;;5.10;2.13;;;-1.70;99.90;;;;;;4993872;28;20050;-89
2022/12/08 02:15:37;;;;;;;5.18;1.73;;;-1.70;99.90;;;;;;4993959;28;20030;-89
2022/12/08 02:18:17;;;;;;;5.63;1.50;;;-1.70;99.90;;;;;;5008454;28;20062;-90
2022/12/08 02:21:04;;;;;;;5.05;1.52;;;-1.70;99.90;;;;;;4992292;28;20069;-90
2022/12/08 02:23:42;;;;;;;4.68;1.80;;;-1.70;99.90;;;;;;4992174;28;21053;-89
2022/12/08 02:26:38;;;;;;;5.45;2.17;;;-1.70;99.90;;;;;;4993274;28;20485;-88
2022/12/08 02:29:25;;;;;;;6.95;2.85;;;-1.80;99.90;;;;;;4992697;28;20030;-88
2022/12/08 02:32:11;;;;;;;6.28;2.75;;;-1.80;99.90;;;;;;4993227;28;20480;-89
2022/12/08 02:34:51;;;;;;;3.50;1.95;;;-1.90;99.90;;;;;;4992306;28;20053;-90
2022/12/08 02:37:25;;;;;;;3.22;1.45;;;-2.00;99.90;;;;;;4995954;28;20541;-90
2022/12/08 02:40:13;;;;;;;3.72;1.15;;;-2.00;99.90;;;;;;4995560;28;20570;-88
2022/12/08 02:42:49;;;;;;;2.85;1.08;;;-2.00;99.90;;;;;;4977320;28;20039;-88
2022/12/08 02:45:47;;;;;;;3.03;1.08;;;-1.90;99.90;;;;;;4978061;28;20031;-89
2022/12/08 02:48:14;;;;;;;5.70;1.42;;;-1.90;99.90;;;;;;4976871;28;20568;-89
2022/12/08 02:50:40;;;;;;;3.03;1.55;;;-1.90;99.90;;;;;;4976312;28;20078;-90
2022/12/08 02:53:05;;;;;;;2.63;1.30;;;-1.90;99.90;;;;;;4976273;28;20058;-89
2022/12/08 02:56:19;;;;;;;2.97;1.00;;;-1.90;99.90;;;;;;4976535;28;20392;-88
2022/12/08 02:59:00;;;;;;;3.08;1.40;;;-1.90;99.90;;;;;;4974282;28;20546;-88
2022/12/08 03:01:44;;;;;;;3.60;1.70;;;-1.90;99.90;;;;;;4976085;28;20030;-88
2022/12/08 03:04:21;;;;;;;3.92;1.50;;;-1.90;99.90;;;;;;4976124;28;20094;-88
2022/12/08 03:07:12;;;;;;;2.38;1.30;;;-2.00;99.90;;;;;;4979603;28;20102;-89
2022/12/08 03:09:38;;;;;;;;;;;-2.00;99.90;;;;;;4979243;28;20047;-88
2022/12/08 03:12:30;;;;;;;4.93;1.17;;;-2.00;99.90;;;;;;4996694;28;19910;-89
2022/12/08 03:15:00;;;;;;;2.50;1.38;;;-2.00;99.90;;;;;;4995286;28;20026;-89
2022/12/08 03:17:28;;;;;;;2.83;1.10;;;-2.00;99.90;;;;;;4995290;28;20069;-89
2022/12/08 03:19:56;;;;;;;3.95;1.77;;;-2.00;99.90;;;;;;4995701;28;20031;-88
2022/12/08 03:22:25;;;;;;;4.38;1.88;;;-2.00;99.90;;;;;;4995194;28;20022;-90
2022/12/08 03:24:52;;;;;;;4.15;1.90;;;-2.00;99.90;;;;;;4995398;28;20185;-88
2022/12/08 03:27:25;;;;;;;3.80;1.60;;;-2.00;99.90;;;;;;4996723;28;20101;-88
2022/12/08 03:29:53;;;;;;;3.70;1.55;;;-2.10;99.90;;;;;;4995629;28;20069;-88
2022/12/08 03:32:32;;;;;;;6.00;1.60;;;-2.10;99.90;;;;;;4995370;28;20084;-87
2022/12/08 03:35:00;;;;;;;3.60;1.73;;;-2.10;99.90;;;;;;4996348;28;20081;-89
2022/12/08 03:37:27;;;;;;;1.95;1.30;;;-2.10;99.90;;;;;;5005138;28;20026;-86
2022/12/08 03:39:53;;;;;;;2.97;0.85;;;-2.10;99.90;;;;;;5005187;28;20502;-90
2022/12/08 03:42:18;;;;;;;1.73;0.80;;;-2.10;99.90;;;;;;5003813;28;20034;-88
2022/12/08 03:44:44;;;;;;;3.22;1.40;;;-2.10;99.90;;;;;;4995255;28;20061;-87
2022/12/08 03:47:10;;;;;;;3.00;1.02;;;-2.20;99.90;;;;;;4995405;28;20030;-87
2022/12/08 03:49:35;;;;;;;2.80;1.27;;;-2.20;99.90;;;;;;4993991;28;20576;-88
2022/12/08 03:52:01;;;;;;;2.60;1.42;;;-2.20;99.90;;;;;;4994924;28;20030;-89
2022/12/08 03:54:27;;;;;;;2.90;1.00;;;-2.20;99.90;;;;;;4994503;28;20550;-87
2022/12/08 03:56:52;;;;;;;2.28;1.10;;;-2.30;99.90;;;;;;4994810;28;20380;-89
2022/12/08 03:59:18;;;;;;;4.18;1.38;;;-2.30;99.90;;;;;;4994899;28;20026;-89
2022/12/08 04:01:44;;;;;;;3.72;1.48;;;-2.30;99.90;;;;;;4994687;28;20030;-88
2022/12/08 04:04:09;;;;;;;3.70;1.50;;;-2.30;99.90;;;;;;4994461;28;20472;-87
2022/12/08 04:06:35;;;;;;;5.65;1.55;;;-2.40;99.90;;;;;;4994757;28;20030;-88
2022/12/08 04:09:01;;;;;;;3.03;1.10;;;-2.40;99.90;;;;;;4993472;28;20101;-88
2022/12/08 04:11:26;;;;;;;1.42;1.02;;;-2.40;99.90;;;;;;4994867;28;20447;-88
2022/12/08 04:13:52;;;;;;;1.23;0.93;;;-2.40;99.90;;;;;;4994119;28;20077;-89
2022/12/08 04:16:25;;;;;;;2.25;1.17;;;-2.40;99.90;;;;;;4994073;28;20088;-90
2022/12/08 04:18:51;;;;;;;1.50;0.98;;;-2.40;99.90;;;;;;4993698;28;20030;-90
2022/12/08 04:21:17;;;;;;;4.07;1.40;;;-2.30;99.90;;;;;;4995386;28;20402;-90
2022/12/08 04:23:43;;;;;;;3.75;1.13;;;-2.30;99.90;;;;;;4994343;28;20545;-90
2022/12/08 04:26:08;;;;;;;2.65;1.17;;;-2.30;99.90;;;;;;4995378;28;20031;-90
2022/12/08 04:28:34;;;;;;;2.17;0.90;;;-2.30;99.90;;;;;;4994817;28;20366;-89
2022/12/08 04:31:00;;;;;;;1.80;0.98;;;-2.30;99.90;;;;;;4983129;28;20121;-89
2022/12/08 04:33:26;;;;;;;1.77;0.77;;;-2.30;99.90;;;;;;4987985;28;20565;-89
2022/12/08 04:35:51;;;;;;;4.68;0.98;;;-2.30;99.90;;;;;;4995116;28;20038;-88
2022/12/08 04:38:17;;;;;;;3.45;1.02;;;-2.40;99.90;;;;;;4994315;28;20076;-88
2022/12/08 04:40:43;;;;;;;1.85;0.82;;;-2.40;99.90;;;;;;4993727;28;20022;-89
2022/12/08 04:43:08;;;;;;;1.75;1.00;;;-2.40;99.90;;;;;;4994988;28;20037;-89
2022/12/08 04:45:34;;;;;;;2.25;1.00;;;-2.40;99.90;;;;;;4993670;28;20023;-90
2022/12/08 04:48:01;;;;;;;3.00;0.93;;;-2.40;99.90;;;;;;4993095;28;20030;-89
2022/12/08 04:50:27;;;;;;;1.80;1.02;;;-2.40;99.90;;;;;;4994651;28;20117;-89
2022/12/08 04:52:53;;;;;;;3.88;0.88;;;-2.40;99.90;;;;;;4994747;28;20038;-90
2022/12/08 04:55:18;;;;;;;7.55;1.10;;;-2.50;99.90;;;;;;4995000;28;20081;-90
2022/12/08 04:57:45;;;;;;;2.80;0.73;;;-2.40;99.90;;;;;;4993341;28;20050;-89
2022/12/08 05:00:11;;;;;;;1.88;1.15;;;-2.40;99.90;;;;;;4993925;28;20040;-91
2022/12/08 05:02:36;;;;;;;3.92;0.93;;;-2.40;99.90;;;;;;4993383;28;20117;-88
2022/12/08 05:05:03;;;;;;;2.33;0.90;;;-2.40;99.90;;;;;;4993409;28;20125;-91
2022/12/08 05:07:28;;;;;;;1.45;0.70;;;-2.40;99.90;;;;;;4991763;28;20026;-90
2022/12/08 05:09:54;;;;;;;1.35;0.82;;;-2.30;99.90;;;;;;4992478;28;20069;-89
2022/12/08 05:12:20;;;;;;;5.47;1.08;;;-2.30;99.90;;;;;;4994413;28;20026;-89
2022/12/08 05:14:46;;;;;;;0.90;0.60;;;-2.30;99.90;;;;;;4992961;28;20031;-90
2022/12/08 05:17:13;;;;;;;2.63;0.95;;;-2.30;99.90;;;;;;4994657;28;20026;-90
2022/12/08 05:19:39;;;;;;;1.27;0.60;;;-2.30;99.90;;;;;;4993957;28;20034;-90
2022/12/08 05:22:04;;;;;;;2.42;1.20;;;-2.30;99.90;;;;;;4993465;28;20365;-91
2022/12/08 05:24:30;;;;;;;1.30;0.80;;;-2.30;99.90;;;;;;4992764;28;20078;-90
2022/12/08 05:26:56;;;;;;;2.13;0.88;;;-2.30;99.90;;;;;;4994317;28;20472;-89
2022/12/08 05:29:21;;;;;;;1.35;0.85;;;-2.20;99.90;;;;;;4984793;28;20038;-89
2022/12/08 05:31:47;;;;;;;1.50;0.77;;;-2.20;99.90;;;;;;5001591;28;20030;-90
2022/12/08 05:34:13;;;;;;;2.22;0.77;;;-2.20;99.90;;;;;;5002652;28;20023;-90
2022/12/08 05:36:39;;;;;;;3.42;1.00;;;-2.10;99.90;;;;;;4999427;28;20100;-89
2022/12/08 05:39:04;;;;;;;2.13;0.75;;;-2.10;99.90;;;;;;4998199;28;20030;-89
2022/12/08 05:41:30;;;;;;;1.50;0.88;;;-2.10;99.90;;;;;;4997230;28;20468;-89
2022/12/08 05:43:56;;;;;;;3.90;1.83;;;-2.10;99.90;;;;;;4994206;28;20056;-90
2022/12/08 05:46:21;;;;;;;2.80;1.73;;;-2.20;99.90;;;;;;4994966;28;20038;-88
2022/12/08 05:48:47;;;;;;;3.97;2.47;;;-2.30;99.90;;;;;;4993872;28;20117;-90
2022/12/08 05:51:19;;;;;;;4.65;2.40;;;-2.30;99.90;;;;;;4993298;28;20136;-89
2022/12/08 05:53:45;;;;;;;4.82;1.70;;;-2.40;99.90;;;;;;4994561;28;20030;-92
2022/12/08 05:56:11;;;;;;;2.88;1.27;;;-2.40;99.90;;;;;;4994734;28;20125;-90
2022/12/08 05:58:36;;;;;;;1.92;1.08;;;-2.40;99.90;;;;;;4992984;28;20036;-90
2022/12/08 06:01:02;;;;;;;4.13;1.40;;;-2.30;99.90;;;;;;4993466;28;20109;-87
2022/12/08 06:03:28;;;;;;;3.97;1.30;;;-2.30;99.90;;;;;;4993566;28;20026;-91
2022/12/08 06:05:54;;;;;;;5.00;1.35;;;-2.20;99.90;;;;;;4992376;28;20052;-90
2022/12/08 06:08:20;;;;;;;2.53;1.05;;;-2.10;99.90;;;;;;5008293;28;20026;-89
2022/12/08 06:10:46;;;;;;;2.85;1.25;;;-2.10;99.90;;;;;;5008510;28;20046;-90
2022/12/08 06:13:12;;;;;;;4.82;1.15;;;-2.00;99.90;;;;;;4992251;28;20040;-88
2022/12/08 06:15:38;;;;;;;6.38;1.13;;;-1.90;99.90;;;;;;4992399;28;20534;-88
2022/12/08 06:18:05;;;;;;;4.93;1.27;;;-1.80;99.90;;;;;;4993013;28;20515;-90
2022/12/08 06:20:31;;;;;;;1.17;0.80;;;-1.80;99.90;;;;;;4992187;28;20030;-90
2022/12/08 06:22:56;;;;;;;1.85;0.95;;;-1.80;99.90;;;;;;4993441;28;20093;-89
2022/12/08 06:25:22;;;;;;;2.50;1.10;;;-1.80;99.90;;;;;;4992300;28;20057;-89
2022/12/08 06:27:48;;;;;;;3.53;1.13;;;-1.80;99.90;;;;;;4992987;28;20031;-89
2022/12/08 06:30:14;;;;;;;2.63;1.30;;;-1.80;99.90;;;;;;4992890;28;20034;-90
2022/12/08 06:32:39;;;;;;;2.03;1.40;;;-1.80;99.90;;;;;;4992126;28;20030;-90
2022/12/08 06:35:06;;;;;;;4.53;1.60;;;-1.80;99.90;;;;;;4993700;28;20029;-90
2022/12/08 06:37:31;;;;;;;6.25;1.90;;;-1.90;99.90;;;;;;4993311;28;20219;-91
2022/12/08 06:39:57;;;;;;;1.92;1.48;;;-1.90;99.90;;;;;;4992557;28;20109;-91
2022/12/08 06:45:07;;;;;;;4.90;1.35;;;-2.00;99.90;;;;;;4994351;28;20085;-89
2022/12/08 06:47:33;;;;;;;1.95;1.00;;;-2.00;99.90;;;;;;4993215;28;20037;-90
2022/12/08 06:49:59;;;;;;;3.35;1.10;;;-2.10;99.90;;;;;;4994736;28;20112;-90
2022/12/08 06:52:25;;;;;;;1.95;0.90;;;-2.10;99.90;;;;;;4995624;28;20085;-90
2022/12/08 06:54:50;;;;;;;3.00;1.17;;;-2.10;99.90;;;;;;4992346;28;20238;-90
2022/12/08 06:57:17;;;;;;;4.57;1.40;;;-2.10;99.90;;;;;;4991994;28;20472;-88
2022/12/08 06:59:43;;;;;;;2.28;0.95;;;-2.10;99.90;;;;;;4991348;28;20022;-90
2022/12/08 07:02:09;;;;;;;2.30;0.82;;;-2.10;99.90;;;;;;4991910;28;20026;-90
2022/12/08 07:04:35;;;;;;;2.08;1.00;;;-2.10;99.90;;;;;;5008071;28;20066;-90
2022/12/08 07:07:00;;;;;;;3.00;1.00;;;-2.10;99.90;;;;;;4991900;28;20100;-91
2022/12/08 07:09:26;;;;;;;2.70;0.93;;;-2.20;99.90;;;;;;4992585;28;20045;-90
2022/12/08 07:11:52;;;;;;;4.97;1.10;;;-2.20;99.90;;;;;;4991683;28;20027;-90
2022/12/08 07:14:22;;;;;;;2.00;0.90;;;-2.20;99.90;;;;;;4991415;28;20045;-90
2022/12/08 07:16:48;;;;;;;3.45;1.15;;;-2.20;99.90;;;;;;4993911;28;20479;-90
2022/12/08 07:19:13;;;;;;;1.60;0.80;;;-2.20;99.90;;;;;;4991428;28;20035;-90
2022/12/08 07:21:39;;;;;;;4.78;0.95;;;-2.20;99.90;;;;;;4992973;28;20023;-89
2022/12/08 07:24:05;;;;;;;2.97;1.17;;;-2.20;99.90;;;;;;4994825;28;20044;-89
2022/12/08 07:26:31;;;;;;;4.28;1.50;;;-2.30;99.90;;;;;;4992898;28;20021;-91
2022/12/08 07:28:59;;;;;;;3.28;1.30;;;-2.50;99.90;;;;;;4986008;28;20027;-90
2022/12/08 07:31:25;;;;;;;3.53;1.10;;;-2.50;99.90;;;;;;4986593;28;20035;-90
2022/12/08 07:33:51;;;;;;;4.35;1.13;;;-2.50;99.90;;;;;;4986315;28;20023;-89
2022/12/08 07:36:17;;;;;;;1.38;0.90;;;-2.60;99.90;;;;;;4987801;28;20111;-90
2022/12/08 07:38:43;;;;;;;3.83;1.10;;;-2.60;99.90;;;;;;4986209;28;20479;-90
2022/12/08 07:41:16;;;;;;;1.65;0.88;;;-2.60;99.90;;;;;;4985777;28;20513;-89
2022/12/08 07:43:42;;;;;;;1.77;1.27;;;-2.70;99.90;;;;;;4987534;28;20048;-90
2022/12/08 07:46:12;;;;;;;2.00;1.25;;;-2.70;99.90;;;;;;4985195;28;20022;-90
2022/12/08 07:48:38;;;;;;;2.10;1.17;;;-2.70;99.90;;;;;;4986619;28;20039;-88
2022/12/08 07:51:05;;;;;;;3.22;1.40;;;-2.70;99.90;;;;;;4997249;28;20042;-87
2022/12/08 07:53:31;;;;;;;3.05;1.10;;;-2.70;99.90;;;;;;4999574;28;20026;-87
2022/12/08 07:55:57;;;;;;;3.10;1.60;;;-2.70;99.90;;;;;;5001225;28;20030;-89
2022/12/08 07:58:23;;;;;;;1.63;1.00;;;-2.70;99.90;;;;;;5009146;28;20096;-89
2022/12/08 08:00:48;;;;;;;4.25;1.25;;;-2.70;99.90;;;;;;5015160;28;20010;-89
2022/12/08 08:03:14;;;;;;;3.22;1.55;;;-2.70;99.90;;;;;;5001619;28;20026;-89
2022/12/08 08:05:42;;;;;;;4.30;1.30;;;-2.70;99.90;;;;;;4981353;28;20034;-88
2022/12/08 08:08:08;;;;;;;1.38;0.90;;;-2.70;99.90;;;;;;4979028;28;20037;-89
2022/12/08 08:10:34;;;;;;;4.78;0.85;;;-2.70;99.90;;;;;;4986211;28;20523;-88
2022/12/08 08:13:00;;;;;;;1.65;1.40;;;-2.70;99.90;;;;;;4989177;28;20018;-90
2022/12/08 08:15:26;;;;;;;2.65;1.10;;;-2.70;99.90;;;;;;4985722;28;20036;-89
2022/12/08 08:17:52;;;;;;;4.32;1.70;;;-2.70;99.90;;;;;;4980856;28;20043;-89
2022/12/08 08:20:19;;;;;;;2.90;1.10;;;-2.60;99.90;;;;;;4986551;28;20027;-89
2022/12/08 08:22:47;;;;;;;4.60;1.38;;;-2.60;99.90;;;;;;5001911;28;20029;-89
2022/12/08 08:25:13;;;;;;;2.28;1.33;;;-2.70;99.90;;;;;;4986781;28;20042;-92
2022/12/08 08:27:41;;;;;;;2.45;1.00;;;-2.70;99.90;;;;;;4994194;28;20031;-90
2022/12/08 08:30:09;;;;;;;2.22;1.20;;;-2.80;99.90;;;;;;4993900;28;20038;-90
2022/12/08 08:32:35;;;;;;;3.25;1.08;;;-2.70;99.90;;;;;;4993399;28;20069;-89
2022/12/08 08:35:01;;;;;;;4.15;1.23;;;-2.80;99.90;;;;;;4982818;28;20038;-87
2022/12/08 08:37:27;;;;;;;7.93;2.60;;;-2.80;99.90;;;;;;4993023;28;20022;-90
2022/12/08 08:39:53;;;;;;;6.20;2.47;;;-2.80;99.90;;;;;;4984768;28;20041;-93
2022/12/08 08:42:18;;;;;;;4.45;1.13;;;-2.90;99.90;;;;;;4994534;28;20122;-89
2022/12/08 08:44:44;;;;;;;3.08;0.82;;;-2.90;99.90;;;;;;4987589;28;20030;-90
2022/12/08 08:47:10;;;;;;;2.35;0.90;;;-2.90;99.90;;;;;;4986049;28;20038;-91
2022/12/08 08:49:36;;;;;;;5.72;1.92;;;-2.90;99.90;;;;;;4991327;28;20045;-88
2022/12/08 08:52:04;;;;;;;12.02;3.58;;;-2.90;99.90;;;;;;4986846;28;20026;-86
2022/12/08 08:54:30;;;;;;;9.27;3.17;;;-3.00;99.90;;;;;;4985438;28;20026;-89
2022/12/08 08:56:57;;;;;;;12.20;3.90;;;-3.00;99.90;;;;;;4982819;28;20090;-88
2022/12/08 08:59:23;;;;;;;8.70;2.47;;;-3.10;99.90;;;;;;4985402;28;20022;-90
2022/12/08 09:01:49;;;;;;;6.78;2.30;;;-3.10;99.90;;;;;;4986363;28;20026;-91
2022/12/08 09:04:14;;;;;;;3.72;1.88;;;-3.10;99.90;;;;;;4994064;28;20384;-91
2022/12/08 09:06:42;;;;;;;6.65;1.88;;;-3.00;99.90;;;;;;4999182;28;20030;-90
2022/12/08 09:09:07;;;;;;;6.30;2.25;;;-3.00;99.90;;;;;;5001538;28;20041;-91
2022/12/08 09:11:33;;;;;;;10.45;2.80;;;-3.00;99.90;;;;;;4999887;28;20085;-92
2022/12/08 09:13:59;;;;;;;16.38;5.72;;;-2.90;99.90;;;;;;4999137;28;20035;-92
2022/12/08 09:16:25;;;;;;;14.45;5.93;;;-2.80;99.90;;;;;;4998745;28;20106;-92
2022/12/08 09:18:51;;;;;;;45.63;15.05;;;-2.80;99.90;;;;;;4995042;28;20422;-91
2022/12/08 09:21:21;;;;;;;38.67;14.45;;;-2.70;99.90;;;;;;4995077;28;20396;-92
2022/12/08 09:23:48;;;;;;;27.45;11.93;;;-2.60;99.90;;;;;;4995683;28;20030;-92
2022/12/08 09:26:13;;;;;;;34.08;13.57;;;-2.50;99.90;;;;;;4994618;28;20070;-91
2022/12/08 09:28:45;;;;;;;29.98;12.10;;;-2.30;99.90;;;;;;4994365;28;20037;-92
2022/12/08 09:31:13;;;;;;;22.58;10.55;;;-2.20;99.90;;;;;;4992440;28;20045;-91
2022/12/08 09:33:39;;;;;;;23.00;9.70;;;-2.00;99.90;;;;;;4994080;28;20030;-92
2022/12/08 09:36:05;;;;;;;21.02;8.18;;;-1.80;99.90;;;;;;4995005;28;20033;-91
2022/12/08 09:38:31;;;;;;;14.88;6.80;;;-1.60;99.90;;;;;;4994636;28;20037;-93
2022/12/08 09:40:58;;;;;;;16.85;6.95;;;-1.50;99.90;;;;;;4995032;28;20107;-90
2022/12/08 09:44:14;;;;;;;16.23;6.60;;;-1.40;99.90;;;;;;4989965;28;20061;-91
2022/12/08 09:46:44;;;;;;;14.90;5.72;;;-1.20;99.90;;;;;;4924567;29;20044;-91
2022/12/08 09:49:15;;;;;;;15.63;6.65;;;-0.90;99.90;;;;;;4933876;29;20156;-90
2022/12/08 09:51:44;;;;;;;11.65;5.45;;;-0.70;99.90;;;;;;4935094;29;20071;-91
2022/12/08 09:54:33;;;;;;;12.73;4.78;;;-0.30;99.90;;;;;;4934843;29;20036;-91
2022/12/08 09:57:04;;;;;;;13.52;5.80;;;0.00;99.90;;;;;;4923184;29;20034;-91
2022/12/08 09:59:33;;;;;;;9.80;4.90;;;0.40;99.90;;;;;;4936630;29;20043;-92
2022/12/08 10:02:00;;;;;;;12.88;5.15;;;0.70;99.90;;;;;;4937414;29;20146;-92
2022/12/08 10:04:35;;;;;;;9.63;4.30;;;1.00;99.90;;;;;;4948910;28;20130;-93
2022/12/08 10:07:03;;;;;;;10.07;4.20;;;1.40;99.90;;;;;;4934234;29;20067;-94
2022/12/08 10:09:51;;;;;;;10.15;4.28;;;1.70;99.90;;;;;;4934702;29;20079;-93
2022/12/08 10:12:38;;;;;;;8.63;3.90;;;2.10;99.90;;;;;;4939371;29;20118;-94
2022/12/08 10:15:28;;;;;;;5.90;3.47;;;2.40;99.90;;;;;;4937450;29;20554;-94
2022/12/08 10:17:56;;;;;;;8.35;4.03;;;2.70;99.90;;;;;;4937224;29;20035;-92
2022/12/08 10:20:36;;;;;;;6.88;3.42;;;3.00;99.90;;;;;;4956669;28;20034;-93
2022/12/08 10:23:32;;;;;;;9.27;3.67;;;3.30;99.90;;;;;;4979204;28;20067;-92
2022/12/08 10:26:09;;;;;;;7.10;3.72;;;3.70;99.90;;;;;;4976437;28;20130;-91
2022/12/08 10:28:35;;;;;;;7.30;3.00;;;4.10;99.90;;;;;;4993326;28;20100;-92
2022/12/08 10:31:01;;;;;;;4.97;3.00;;;4.30;99.90;;;;;;4993083;28;20035;-92
2022/12/08 10:33:30;;;;;;;5.63;3.17;;;4.50;99.90;;;;;;4989203;28;20038;-92
2022/12/08 10:35:58;;;;;;;6.88;2.92;;;4.70;99.90;;;;;;4984694;28;20042;-89
2022/12/08 10:38:30;;;;;;;5.45;2.40;;;4.90;99.90;;;;;;4985181;28;20023;-93
2022/12/08 10:41:09;;;;;;;4.55;2.13;;;5.20;99.90;;;;;;4992903;28;20022;-92
2022/12/08 10:43:43;;;;;;;7.75;2.40;;;5.50;99.90;;;;;;4991889;28;20098;-94
2022/12/08 10:46:26;;;;;;;6.45;2.30;;;6.00;99.90;;;;;;4989415;28;20023;-92
2022/12/08 10:48:54;;;;;;;4.60;1.90;;;6.30;99.90;;;;;;4980807;28;20373;-92
2022/12/08 10:51:49;;;;;;;5.43;1.85;;;6.50;99.90;;;;;;5000487;28;20105;-90
2022/12/08 10:54:31;;;;;;;4.20;2.00;;;6.60;99.90;;;;;;4977339;28;20094;-92
2022/12/08 10:56:57;;;;;;;5.38;2.45;;;6.90;99.90;;;;;;4991279;28;20015;-91
2022/12/08 10:59:24;;;;;;;6.57;2.47;;;7.10;99.90;;;;;;4990816;28;20027;-93
2022/12/08 11:01:52;;;;;;;4.47;2.50;;;7.30;99.90;;;;;;4988222;28;20054;-91
2022/12/08 11:04:37;;;;;;;6.40;3.40;;;7.60;99.90;;;;;;4978883;28;20087;-90
2022/12/08 11:07:05;;;;;;;6.18;2.70;;;7.90;99.90;;;;;;4993681;28;20023;-92
2022/12/08 11:09:48;;;;;;;7.20;4.03;;;8.20;99.20;;;;;;4976274;28;20045;-92
2022/12/08 11:12:15;;;;;;;5.40;2.67;;;8.50;97.50;;;;;;4977401;28;20019;-93
2022/12/08 11:14:41;;;;;;;4.93;2.90;;;8.60;96.30;;;;;;4976823;28;20030;-91
2022/12/08 11:17:19;;;;;;;8.18;2.50;;;8.80;95.40;;;;;;4976387;28;20045;-93
2022/12/08 11:19:58;;;;;;;5.00;2.60;;;8.90;94.50;;;;;;4976503;28;20129;-91
2022/12/08 11:22:38;;;;;;;6.43;2.42;;;9.00;93.50;;;;;;4977773;28;20098;-92
2022/12/08 11:25:07;;;;;;;6.15;2.33;;;8.90;92.60;;;;;;4977959;28;20047;-88
2022/12/08 11:27:44;;;;;;;6.90;2.30;;;9.00;92.60;;;;;;4979370;28;20503;-90
2022/12/08 11:30:18;;;;;;;5.18;2.33;;;9.30;92.10;;;;;;4977174;28;20045;-91
2022/12/08 11:32:49;;;;;;;4.57;1.65;;;9.50;91.50;;;;;;4975664;28;20027;-90
2022/12/08 11:35:18;;;;;;;6.00;2.20;;;9.60;90.60;;;;;;4976183;28;20027;-91
2022/12/08 11:37:44;;;;;;;5.47;2.75;;;9.80;90.30;;;;;;4983130;28;20026;-89
2022/12/08 11:40:30;;;;;;;5.82;2.20;;;10.00;89.20;;;;;;4995903;28;20436;-90
2022/12/08 11:43:05;;;;;;;8.35;2.97;;;10.10;86.70;;;;;;4994442;28;20476;-90
2022/12/08 11:45:34;;;;;;;7.63;3.15;;;10.20;85.20;;;;;;4995429;28;20027;-90
2022/12/08 11:48:02;;;;;;;6.90;2.80;;;10.20;84.40;;;;;;4995521;28;20038;-91
2022/12/08 11:50:39;;;;;;;6.20;2.90;;;10.30;83.50;;;;;;4996322;28;20117;-92
2022/12/08 11:53:12;;;;;;;4.95;2.22;;;10.30;82.30;;;;;;4996287;28;20026;-91
2022/12/08 11:55:43;;;;;;;5.93;1.63;;;10.40;81.00;;;;;;4995288;28;20022;-91
2022/12/08 11:58:15;;;;;;;;;;;10.60;79.50;;;;;;4998282;28;20037;-90
2022/12/08 12:00:41;;;;;;;3.25;1.80;;;10.50;77.50;;;;;;4996398;28;19917;-90
2022/12/08 12:03:17;;;;;;;6.10;1.95;;;10.60;77.00;;;;;;4986725;28;20019;-89
2022/12/08 12:06:07;;;;;;;2.85;1.73;;;10.60;75.30;;;;;;4980364;28;20041;-92
2022/12/08 12:09:12;;;;;;;6.55;1.98;;;10.80;73.80;;;;;;4978261;28;20034;-91
2022/12/08 12:12:14;;;;;;;3.83;2.00;;;11.00;73.20;;;;;;4977410;28;20105;-90
2022/12/08 12:14:49;;;;;;;7.13;2.30;;;11.30;72.20;;;;;;4976019;28;20381;-91
2022/12/08 12:17:29;;;;;;;6.15;2.30;;;11.50;71.10;;;;;;4991480;28;20030;-91
2022/12/08 12:20:01;;;;;;;4.78;1.92;;;11.80;69.70;;;;;;4995112;28;20030;-90
2022/12/08 12:22:33;;;;;;;5.22;1.88;;;11.80;68.20;;;;;;4995488;28;20038;-89
2022/12/08 12:25:00;;;;;;;7.20;2.58;;;11.70;66.60;;;;;;4995172;28;20043;-88
2022/12/08 12:27:38;;;;;;;2.42;1.55;;;11.50;66.50;;;;;;4995036;28;20058;-89
2022/12/08 12:30:07;;;;;;;1.08;0.90;;;11.50;65.90;;;;;;4994268;28;20041;-90
2022/12/08 12:32:51;;;;;;;3.05;1.35;;;11.60;66.10;;;;;;4994878;28;20122;-91
2022/12/08 12:35:40;;;;;;;3.95;1.75;;;11.90;65.20;;;;;;4976410;28;20054;-90
2022/12/08 12:41:05;;;;;;;3.13;1.02;;;12.20;63.30;;;;;;4992919;28;20036;-90
2022/12/08 12:43:33;;;;;;;1.95;1.40;;;12.40;62.50;;;;;;4976901;28;20030;-90
2022/12/08 12:46:24;;;;;;;4.15;1.35;;;12.60;62.20;;;;;;4988549;28;20050;-89
2022/12/08 12:48:50;;;;;;;3.88;1.42;;;12.90;61.30;;;;;;4985117;28;20132;-91
2022/12/08 12:51:44;;;;;;;3.95;1.33;;;13.10;60.50;;;;;;4997214;28;20041;-91
2022/12/08 12:54:24;;;;;;;3.45;1.40;;;13.30;60.00;;;;;;5000552;28;20481;-89
2022/12/08 12:57:04;;;;;;;7.03;2.30;;;13.50;59.90;;;;;;4999926;28;20498;-91
2022/12/08 12:59:39;;;;;;;5.63;3.33;;;13.50;59.10;;;;;;4998988;28;20484;-91
2022/12/08 13:02:36;;;;;;;3.40;2.05;;;13.50;58.70;;;;;;4998182;28;20026;-91
2022/12/08 13:05:08;;;;;;;5.03;1.25;;;13.40;58.40;;;;;;4995962;28;20125;-91
2022/12/08 13:07:42;;;;;;;4.00;1.17;;;13.50;58.40;;;;;;4997154;28;20026;-91
2022/12/08 13:10:19;;;;;;;5.82;1.50;;;13.70;58.00;;;;;;4996620;28;20042;-89